Oakdale, NY

2:32 PM EDT on March 31, 2015 (GMT -0400)
Brookhaven | | Change Station
CLOSE
Current Station
Airport
Location: Shirley,
Elevation: 82 ft
Nearby Weather Stations

Elev 82 ft 40.82 °N, 72.87 °W | Updated 36 minutes ago

Overcast
Overcast
46 °F
Feels Like 41 °F
N
12
Wind Variable Wind from SSW

Today
High -- | Low -- °F
--% Chance of Precip.
Yesterday
High -- | Low -- °F
Precip. -- in
6:38 AM 7:15 PM
Waxing Gibbous, 88% visible
Pressure 29.78 in
Visibility 10.0 miles
Clouds Mostly Cloudy 7500 ft
Overcast 9000 ft
Windchill 41 °F
Dew Point 24 °F
Humidity 42%
Rainfall 0.00 in
Snow Depth Not available.
UV 2 out of 12
Pollen 7.00 out of 12
Air Quality Not available.
Flu Activity Not available.
METAR KHWV 311756Z AUTO 21010KT 10SM BKN075 OVC090 08/M04 A2978 RMK AO2 RAE1658 SLP085 P0000 60000 T00781044 10094 20044 56025 TSNO

More Conditions Fewer Conditions

Pressure 29.78 in
Visibility 10.0 miles
Clouds Mostly Cloudy 7500 ft
Overcast 9000 ft
Windchill 41 °F
Dew Point 24 °F
Humidity 42%
Rainfall 0.00 in
Snow Depth Not available.
UV 2 out of 12
Pollen 7.00 out of 12
Air Quality Not available.
Flu Activity Not available.
METAR KHWV 311756Z AUTO 21010KT 10SM BKN075 OVC090 08/M04 A2978 RMK AO2 RAE1658 SLP085 P0000 60000 T00781044 10094 20044 56025 TSNO

More Conditions Fewer Conditions

10-Day Weather Forecast

Almanac

Astronomy

Mar. 31, 2015 Rise Set
Actual Time
Civil Twilight
Nautical Twilight
Astronomical Twilight
Moon
Length of Visible Light
Length of Day
Tomorrow will be .
, % of the Moon is Illuminated

Today's Extremes

State Highs State Lows

Community

WunderPhotos

Upload Photos

1,809,786 photos uploaded!

WunderBlogs® & News

Nearby

Air Quality

  Air Quality AQ Index Pollutant
Not available.

Snow Depth

Station Depth Elevation

Earthquake Activity

City Distance Mag. Time & Date
Minimum magnitude displayed is 2.5.

Coastal Water Temperatures

Place Temperature

Stations

Nearby Weather Stations

Station Location Temp. Windchill Dew Point Humidity Wind Precip. Elev Updated Type